Alton, Kansas
Current Conditions -  °F | °C
As of 11:53 AM on Tuesday 21 Oct 2014 (Local Time) from KRSL Reporting Station
Scattered Clouds Scattered Clouds  
Wind Chill: 70°   Ceiling: Unl
Heat Index: 70°   Visibility: 10mi
Dew Point: 58°   Wind: 10mph
Humidity: 65%   Direction: 150°SSE
Pressure: 30.07"   Gusts: NA
Location:  39.47°N, 98.95°W
Report Text: KRSL 211653Z AUTO 15009KT 10SM SCT038 21/14 A3007 RMK AO2 SLP179 T02110144
Loading
Personal Weather Stations






























Interactive Weather Map
Tropical Storm Tracking
New forecast layout! Learn more

10-Day Weather Forecast

Advertisements
Track Severe Weather on mobile